sensor_id;sensor_type;location;lat;lon;timestamp;pressure;altitude;pressure_sealevel;temperature;humidity
34506;BME280;20748;42.632;23.198;2023-03-25T00:02:27;91751.78;;;8.19;77.34
34506;BME280;20748;42.632;23.198;2023-03-25T00:05:01;91761.03;;;8.12;77.13
34506;BME280;20748;42.632;23.198;2023-03-25T00:07:34;91758.13;;;7.99;77.51
34506;BME280;20748;42.632;23.198;2023-03-25T00:10:08;91757.72;;;7.92;77.52
34506;BME280;20748;42.632;23.198;2023-03-25T00:12:41;91750.53;;;7.89;78.51
34506;BME280;20748;42.632;23.198;2023-03-25T00:15:14;91747.81;;;7.94;78.60
34506;BME280;20748;42.632;23.198;2023-03-25T00:17:47;91734.56;;;7.96;79.69
34506;BME280;20748;42.632;23.198;2023-03-25T00:20:19;91741.78;;;7.99;78.65
34506;BME280;20748;42.632;23.198;2023-03-25T00:22:52;91734.94;;;7.89;79.70
34506;BME280;20748;42.632;23.198;2023-03-25T00:25:24;91735.31;;;7.82;80.13
34506;BME280;20748;42.632;23.198;2023-03-25T00:27:56;91730.69;;;7.79;81.19
34506;BME280;20748;42.632;23.198;2023-03-25T00:30:29;91725.19;;;7.81;81.11
34506;BME280;20748;42.632;23.198;2023-03-25T00:33:02;91723.47;;;7.76;81.90
34506;BME280;20748;42.632;23.198;2023-03-25T00:35:35;91717.31;;;7.72;81.86
34506;BME280;20748;42.632;23.198;2023-03-25T00:38:08;91721.44;;;7.73;81.73
34506;BME280;20748;42.632;23.198;2023-03-25T00:40:40;91724.78;;;7.59;82.35
34506;BME280;20748;42.632;23.198;2023-03-25T00:43:12;91719.47;;;7.50;82.65
34506;BME280;20748;42.632;23.198;2023-03-25T00:45:46;91721.53;;;7.54;83.26
34506;BME280;20748;42.632;23.198;2023-03-25T00:48:18;91712.94;;;7.53;82.87
34506;BME280;20748;42.632;23.198;2023-03-25T00:50:51;91718.31;;;7.43;82.83
34506;BME280;20748;42.632;23.198;2023-03-25T00:53:23;91716.50;;;7.43;84.21
34506;BME280;20748;42.632;23.198;2023-03-25T00:55:56;91714.16;;;7.42;84.69
34506;BME280;20748;42.632;23.198;2023-03-25T00:58:29;91715.31;;;7.35;84.00
34506;BME280;20748;42.632;23.198;2023-03-25T01:01:08;91708.13;;;7.13;84.01
34506;BME280;20748;42.632;23.198;2023-03-25T01:03:44;91705.81;;;7.11;85.18
34506;BME280;20748;42.632;23.198;2023-03-25T01:06:17;91713.25;;;7.18;86.14
34506;BME280;20748;42.632;23.198;2023-03-25T01:08:52;91700.41;;;7.27;85.59
34506;BME280;20748;42.632;23.198;2023-03-25T01:11:26;91705.22;;;7.34;84.38
34506;BME280;20748;42.632;23.198;2023-03-25T01:13:58;91700.69;;;7.25;85.04
34506;BME280;20748;42.632;23.198;2023-03-25T01:16:32;91698.34;;;7.24;84.84
34506;BME280;20748;42.632;23.198;2023-03-25T01:19:05;91700.47;;;7.22;85.25
34506;BME280;20748;42.632;23.198;2023-03-25T01:21:37;91692.97;;;7.20;85.85
34506;BME280;20748;42.632;23.198;2023-03-25T01:24:12;91688.53;;;7.21;85.47
34506;BME280;20748;42.632;23.198;2023-03-25T01:26:44;91687.66;;;7.11;86.03
34506;BME280;20748;42.632;23.198;2023-03-25T01:29:19;91678.41;;;7.05;86.87
34506;BME280;20748;42.632;23.198;2023-03-25T01:31:52;91671.22;;;7.16;86.16
34506;BME280;20748;42.632;23.198;2023-03-25T01:34:25;91669.22;;;7.13;87.28
34506;BME280;20748;42.632;23.198;2023-03-25T01:36:58;91662.19;;;7.14;86.49
34506;BME280;20748;42.632;23.198;2023-03-25T01:39:31;91667.38;;;7.14;86.24
34506;BME280;20748;42.632;23.198;2023-03-25T01:42:04;91667.84;;;7.02;86.51
34506;BME280;20748;42.632;23.198;2023-03-25T01:48:04;91654.59;;;7.03;86.80
34506;BME280;20748;42.632;23.198;2023-03-25T01:50:43;91655.69;;;6.97;87.76
34506;BME280;20748;42.632;23.198;2023-03-25T01:53:19;91664.66;;;7.05;88.07
34506;BME280;20748;42.632;23.198;2023-03-25T01:55:51;91661.31;;;7.04;86.63
34506;BME280;20748;42.632;23.198;2023-03-25T01:58:26;91661.13;;;7.01;86.73
34506;BME280;20748;42.632;23.198;2023-03-25T02:01:00;91657.66;;;7.05;87.04
34506;BME280;20748;42.632;23.198;2023-03-25T02:03:34;91653.09;;;6.97;87.18
34506;BME280;20748;42.632;23.198;2023-03-25T02:06:11;91653.59;;;6.99;86.90
34506;BME280;20748;42.632;23.198;2023-03-25T02:08:46;91661.94;;;6.96;86.37
34506;BME280;20748;42.632;23.198;2023-03-25T02:11:19;91654.03;;;6.87;86.76
34506;BME280;20748;42.632;23.198;2023-03-25T02:13:52;91655.88;;;6.87;87.98
34506;BME280;20748;42.632;23.198;2023-03-25T02:16:29;91648.78;;;6.92;87.17
34506;BME280;20748;42.632;23.198;2023-03-25T02:19:32;91649.84;;;6.91;87.85
34506;BME280;20748;42.632;23.198;2023-03-25T02:22:29;91650.63;;;6.92;88.04
34506;BME280;20748;42.632;23.198;2023-03-25T02:25:29;91658.28;;;6.83;88.37
34506;BME280;20748;42.632;23.198;2023-03-25T02:28:13;91643.59;;;6.92;87.47
34506;BME280;20748;42.632;23.198;2023-03-25T02:34:27;91657.63;;;6.72;88.11
34506;BME280;20748;42.632;23.198;2023-03-25T02:37:22;91656.31;;;6.75;88.86
34506;BME280;20748;42.632;23.198;2023-03-25T02:40:01;91658.69;;;6.71;88.85
34506;BME280;20748;42.632;23.198;2023-03-25T02:42:40;91651.84;;;6.61;89.04
34506;BME280;20748;42.632;23.198;2023-03-25T02:45:20;91653.44;;;6.57;89.77
34506;BME280;20748;42.632;23.198;2023-03-25T02:47:58;91648.97;;;6.63;89.58
34506;BME280;20748;42.632;23.198;2023-03-25T02:50:36;91648.19;;;6.62;90.23
34506;BME280;20748;42.632;23.198;2023-03-25T02:53:14;91648.38;;;6.66;89.42
34506;BME280;20748;42.632;23.198;2023-03-25T02:55:49;91652.44;;;6.53;89.95
34506;BME280;20748;42.632;23.198;2023-03-25T02:58:24;91646.09;;;6.45;90.79
34506;BME280;20748;42.632;23.198;2023-03-25T03:00:58;91641.13;;;6.49;90.88
34506;BME280;20748;42.632;23.198;2023-03-25T03:03:31;91644.63;;;6.39;91.49
34506;BME280;20748;42.632;23.198;2023-03-25T03:06:06;91637.06;;;6.42;92.12
34506;BME280;20748;42.632;23.198;2023-03-25T03:08:58;91638.25;;;6.50;91.43
34506;BME280;20748;42.632;23.198;2023-03-25T03:11:41;91631.81;;;6.48;90.65
34506;BME280;20748;42.632;23.198;2023-03-25T03:14:29;91645.25;;;6.50;90.29
34506;BME280;20748;42.632;23.198;2023-03-25T03:17:07;91644.53;;;6.44;90.45
34506;BME280;20748;42.632;23.198;2023-03-25T03:19:46;91647.13;;;6.44;90.14
34506;BME280;20748;42.632;23.198;2023-03-25T03:22:31;91641.19;;;6.43;89.88
34506;BME280;20748;42.632;23.198;2023-03-25T03:25:13;91644.06;;;6.42;89.99
34506;BME280;20748;42.632;23.198;2023-03-25T03:27:55;91642.66;;;6.30;90.61
34506;BME280;20748;42.632;23.198;2023-03-25T03:30:31;91642.94;;;6.29;90.73
34506;BME280;20748;42.632;23.198;2023-03-25T03:33:10;91640.44;;;6.24;91.34
34506;BME280;20748;42.632;23.198;2023-03-25T03:35:49;91642.88;;;6.15;91.66
34506;BME280;20748;42.632;23.198;2023-03-25T03:38:30;91638.22;;;6.12;91.76
34506;BME280;20748;42.632;23.198;2023-03-25T03:41:08;91636.75;;;6.06;91.75
34506;BME280;20748;42.632;23.198;2023-03-25T03:43:45;91638.28;;;6.07;92.45
34506;BME280;20748;42.632;23.198;2023-03-25T03:46:22;91634.72;;;6.02;93.46
34506;BME280;20748;42.632;23.198;2023-03-25T03:48:57;91641.97;;;6.00;94.94
34506;BME280;20748;42.632;23.198;2023-03-25T03:51:34;91647.72;;;5.97;95.15
34506;BME280;20748;42.632;23.198;2023-03-25T03:54:13;91639.94;;;5.97;96.28
34506;BME280;20748;42.632;23.198;2023-03-25T03:56:50;91626.34;;;5.86;96.55
34506;BME280;20748;42.632;23.198;2023-03-25T03:59:29;91640.69;;;5.98;96.06
34506;BME280;20748;42.632;23.198;2023-03-25T04:02:10;91638.13;;;5.98;95.24
34506;BME280;20748;42.632;23.198;2023-03-25T04:04:45;91642.88;;;5.90;95.91
34506;BME280;20748;42.632;23.198;2023-03-25T04:07:20;91648.59;;;5.87;95.48
34506;BME280;20748;42.632;23.198;2023-03-25T04:09:56;91643.69;;;5.86;95.48
34506;BME280;20748;42.632;23.198;2023-03-25T04:12:36;91646.28;;;5.86;96.57
34506;BME280;20748;42.632;23.198;2023-03-25T04:15:13;91647.63;;;5.83;96.74
34506;BME280;20748;42.632;23.198;2023-03-25T04:17:45;91645.03;;;5.83;96.47
34506;BME280;20748;42.632;23.198;2023-03-25T04:20:21;91641.66;;;5.83;96.58
34506;BME280;20748;42.632;23.198;2023-03-25T04:22:55;91640.66;;;5.78;97.22
34506;BME280;20748;42.632;23.198;2023-03-25T04:25:27;91652.00;;;5.83;97.29
34506;BME280;20748;42.632;23.198;2023-03-25T04:28:02;91647.09;;;5.81;97.82
34506;BME280;20748;42.632;23.198;2023-03-25T04:30:35;91653.94;;;5.72;98.83
34506;BME280;20748;42.632;23.198;2023-03-25T04:33:08;91645.66;;;5.70;100.00
34506;BME280;20748;42.632;23.198;2023-03-25T04:35:40;91651.63;;;5.70;100.00
34506;BME280;20748;42.632;23.198;2023-03-25T04:38:13;91652.69;;;5.69;100.00
34506;BME280;20748;42.632;23.198;2023-03-25T04:40:47;91650.09;;;5.69;100.00
34506;BME280;20748;42.632;23.198;2023-03-25T04:43:20;91659.13;;;5.72;100.00
34506;BME280;20748;42.632;23.198;2023-03-25T04:45:53;91653.13;;;5.76;99.87
34506;BME280;20748;42.632;23.198;2023-03-25T04:48:28;91659.06;;;5.77;99.47
34506;BME280;20748;42.632;23.198;2023-03-25T04:51:01;91664.25;;;5.77;98.78
34506;BME280;20748;42.632;23.198;2023-03-25T04:53:34;91657.81;;;5.74;99.53
34506;BME280;20748;42.632;23.198;2023-03-25T04:56:11;91668.66;;;5.76;99.05
34506;BME280;20748;42.632;23.198;2023-03-25T04:58:46;91658.56;;;5.75;99.27
34506;BME280;20748;42.632;23.198;2023-03-25T05:01:21;91659.63;;;5.74;99.47
34506;BME280;20748;42.632;23.198;2023-03-25T05:03:56;91657.81;;;5.74;99.97
34506;BME280;20748;42.632;23.198;2023-03-25T05:06:38;91660.41;;;5.74;100.00
34506;BME280;20748;42.632;23.198;2023-03-25T05:09:12;91653.59;;;5.78;100.00
34506;BME280;20748;42.632;23.198;2023-03-25T05:11:46;91657.28;;;5.72;100.00
34506;BME280;20748;42.632;23.198;2023-03-25T05:14:20;91656.50;;;5.77;100.00
34506;BME280;20748;42.632;23.198;2023-03-25T05:16:53;91654.59;;;5.83;100.00
34506;BME280;20748;42.632;23.198;2023-03-25T05:19:28;91660.56;;;5.83;100.00
34506;BME280;20748;42.632;23.198;2023-03-25T05:22:00;91654.53;;;5.88;100.00
34506;BME280;20748;42.632;23.198;2023-03-25T05:24:33;91661.47;;;5.93;100.00
34506;BME280;20748;42.632;23.198;2023-03-25T05:27:08;91652.91;;;5.97;100.00
34506;BME280;20748;42.632;23.198;2023-03-25T05:29:40;91650.78;;;5.99;100.00
34506;BME280;20748;42.632;23.198;2023-03-25T05:32:15;91646.63;;;6.03;100.00
34506;BME280;20748;42.632;23.198;2023-03-25T05:34:48;91652.78;;;6.08;100.00
34506;BME280;20748;42.632;23.198;2023-03-25T05:37:21;91653.56;;;6.08;100.00
34506;BME280;20748;42.632;23.198;2023-03-25T05:39:53;91650.28;;;6.22;100.00
34506;BME280;20748;42.632;23.198;2023-03-25T05:42:25;91654.41;;;6.23;100.00
34506;BME280;20748;42.632;23.198;2023-03-25T05:44:58;91661.31;;;6.33;100.00
34506;BME280;20748;42.632;23.198;2023-03-25T05:47:31;91662.53;;;6.35;100.00
34506;BME280;20748;42.632;23.198;2023-03-25T05:50:04;91665.72;;;6.51;100.00
34506;BME280;20748;42.632;23.198;2023-03-25T05:52:37;91660.03;;;6.68;100.00
34506;BME280;20748;42.632;23.198;2023-03-25T05:55:14;91657.97;;;6.84;100.00
34506;BME280;20748;42.632;23.198;2023-03-25T05:57:47;91667.25;;;7.05;100.00
34506;BME280;20748;42.632;23.198;2023-03-25T06:00:20;91667.31;;;7.19;100.00
34506;BME280;20748;42.632;23.198;2023-03-25T06:02:55;91673.78;;;7.35;100.00
34506;BME280;20748;42.632;23.198;2023-03-25T06:05:29;91668.53;;;7.55;100.00
34506;BME280;20748;42.632;23.198;2023-03-25T06:08:02;91669.22;;;7.74;99.69
34506;BME280;20748;42.632;23.198;2023-03-25T06:10:34;91671.91;;;7.97;98.25
34506;BME280;20748;42.632;23.198;2023-03-25T06:13:08;91665.47;;;8.23;93.92
34506;BME280;20748;42.632;23.198;2023-03-25T06:15:41;91666.69;;;8.39;94.04
34506;BME280;20748;42.632;23.198;2023-03-25T06:18:14;91666.56;;;8.58;92.74
34506;BME280;20748;42.632;23.198;2023-03-25T06:20:47;91662.75;;;8.79;91.45
34506;BME280;20748;42.632;23.198;2023-03-25T06:23:19;91668.25;;;9.00;91.09
34506;BME280;20748;42.632;23.198;2023-03-25T06:25:56;91660.56;;;9.18;90.62
34506;BME280;20748;42.632;23.198;2023-03-25T06:28:29;91667.88;;;9.38;88.38
34506;BME280;20748;42.632;23.198;2023-03-25T06:31:02;91663.22;;;9.58;85.90
34506;BME280;20748;42.632;23.198;2023-03-25T06:33:38;91661.00;;;9.74;86.04
34506;BME280;20748;42.632;23.198;2023-03-25T06:36:17;91669.34;;;9.94;85.24
34506;BME280;20748;42.632;23.198;2023-03-25T06:38:50;91670.31;;;10.16;83.49
34506;BME280;20748;42.632;23.198;2023-03-25T06:41:24;91670.69;;;10.32;82.09
34506;BME280;20748;42.632;23.198;2023-03-25T06:44:16;91659.84;;;10.47;79.79
34506;BME280;20748;42.632;23.198;2023-03-25T06:47:17;91661.56;;;10.70;79.27
34506;BME280;20748;42.632;23.198;2023-03-25T06:49:54;91673.38;;;10.94;78.33
34506;BME280;20748;42.632;23.198;2023-03-25T06:52:26;91681.34;;;11.15;76.93
34506;BME280;20748;42.632;23.198;2023-03-25T06:54:59;91682.22;;;11.37;75.60
34506;BME280;20748;42.632;23.198;2023-03-25T06:57:31;91679.13;;;11.61;74.38
34506;BME280;20748;42.632;23.198;2023-03-25T07:00:05;91684.75;;;11.81;72.37
34506;BME280;20748;42.632;23.198;2023-03-25T07:02:37;91684.22;;;11.97;71.86
34506;BME280;20748;42.632;23.198;2023-03-25T07:05:11;91678.97;;;12.14;72.55
34506;BME280;20748;42.632;23.198;2023-03-25T07:07:43;91677.97;;;12.28;70.47
34506;BME280;20748;42.632;23.198;2023-03-25T07:10:16;91675.72;;;12.47;70.51
34506;BME280;20748;42.632;23.198;2023-03-25T07:12:48;91682.75;;;12.56;68.44
34506;BME280;20748;42.632;23.198;2023-03-25T07:15:21;91677.69;;;12.72;68.99
34506;BME280;20748;42.632;23.198;2023-03-25T07:17:53;91676.75;;;12.98;69.73
34506;BME280;20748;42.632;23.198;2023-03-25T07:20:27;91674.38;;;13.26;68.76
34506;BME280;20748;42.632;23.198;2023-03-25T07:22:59;91674.78;;;13.50;68.02
34506;BME280;20748;42.632;23.198;2023-03-25T07:25:31;91666.88;;;13.71;66.82
34506;BME280;20748;42.632;23.198;2023-03-25T07:28:04;91678.13;;;13.84;66.07
34506;BME280;20748;42.632;23.198;2023-03-25T07:30:39;91681.34;;;14.02;64.81
34506;BME280;20748;42.632;23.198;2023-03-25T07:33:12;91675.22;;;14.23;64.23
34506;BME280;20748;42.632;23.198;2023-03-25T07:35:45;91673.03;;;14.38;60.95
34506;BME280;20748;42.632;23.198;2023-03-25T07:38:17;91674.31;;;14.56;63.36
34506;BME280;20748;42.632;23.198;2023-03-25T07:40:50;91678.22;;;14.87;60.74
34506;BME280;20748;42.632;23.198;2023-03-25T07:43:22;91671.28;;;15.08;56.43
34506;BME280;20748;42.632;23.198;2023-03-25T07:46:07;91669.06;;;15.22;53.93
34506;BME280;20748;42.632;23.198;2023-03-25T07:48:40;91664.28;;;15.12;50.94
34506;BME280;20748;42.632;23.198;2023-03-25T07:51:13;91657.44;;;15.23;52.49
34506;BME280;20748;42.632;23.198;2023-03-25T07:53:45;91664.50;;;15.35;49.50
34506;BME280;20748;42.632;23.198;2023-03-25T07:56:18;91664.84;;;15.34;48.98
34506;BME280;20748;42.632;23.198;2023-03-25T07:58:50;91660.03;;;15.52;48.83
34506;BME280;20748;42.632;23.198;2023-03-25T08:01:23;91658.13;;;15.65;48.11
34506;BME280;20748;42.632;23.198;2023-03-25T08:03:56;91653.38;;;15.70;48.09
34506;BME280;20748;42.632;23.198;2023-03-25T08:06:29;91643.47;;;15.96;48.24
34506;BME280;20748;42.632;23.198;2023-03-25T08:09:01;91644.91;;;16.09;45.05
34506;BME280;20748;42.632;23.198;2023-03-25T08:11:35;91643.63;;;16.35;44.67
34506;BME280;20748;42.632;23.198;2023-03-25T08:14:07;91650.25;;;16.29;44.74
34506;BME280;20748;42.632;23.198;2023-03-25T08:16:40;91639.06;;;16.16;43.53
34506;BME280;20748;42.632;23.198;2023-03-25T08:19:12;91641.75;;;16.36;44.47
34506;BME280;20748;42.632;23.198;2023-03-25T08:21:45;91634.03;;;16.43;43.81
34506;BME280;20748;42.632;23.198;2023-03-25T08:24:18;91646.53;;;16.66;42.71
34506;BME280;20748;42.632;23.198;2023-03-25T08:26:50;91650.25;;;17.01;43.60
34506;BME280;20748;42.632;23.198;2023-03-25T08:29:23;91639.84;;;17.28;42.85
34506;BME280;20748;42.632;23.198;2023-03-25T08:31:55;91632.47;;;16.98;40.55
34506;BME280;20748;42.632;23.198;2023-03-25T08:34:28;91631.22;;;16.91;39.71
34506;BME280;20748;42.632;23.198;2023-03-25T08:37:06;91626.00;;;17.11;38.38
34506;BME280;20748;42.632;23.198;2023-03-25T08:39:38;91621.41;;;17.28;38.88
34506;BME280;20748;42.632;23.198;2023-03-25T08:42:12;91626.44;;;17.37;39.66
34506;BME280;20748;42.632;23.198;2023-03-25T08:44:45;91616.22;;;17.55;39.37
34506;BME280;20748;42.632;23.198;2023-03-25T08:47:17;91608.81;;;17.17;38.13
34506;BME280;20748;42.632;23.198;2023-03-25T08:49:50;91617.72;;;17.33;39.41
34506;BME280;20748;42.632;23.198;2023-03-25T08:52:23;91625.97;;;17.31;39.27
34506;BME280;20748;42.632;23.198;2023-03-25T08:54:55;91622.56;;;17.50;38.80
34506;BME280;20748;42.632;23.198;2023-03-25T08:57:28;91625.16;;;17.27;39.63
34506;BME280;20748;42.632;23.198;2023-03-25T09:00:00;91601.25;;;17.59;39.82
34506;BME280;20748;42.632;23.198;2023-03-25T09:02:33;91607.97;;;17.80;38.62
34506;BME280;20748;42.632;23.198;2023-03-25T09:05:06;91604.25;;;17.84;39.88
34506;BME280;20748;42.632;23.198;2023-03-25T09:07:39;91598.63;;;17.86;38.57
34506;BME280;20748;42.632;23.198;2023-03-25T09:10:11;91596.53;;;17.95;38.27
34506;BME280;20748;42.632;23.198;2023-03-25T09:12:43;91594.66;;;17.73;38.32
34506;BME280;20748;42.632;23.198;2023-03-25T09:15:16;91587.81;;;18.15;38.54
34506;BME280;20748;42.632;23.198;2023-03-25T09:17:48;91587.72;;;18.38;38.29
34506;BME280;20748;42.632;23.198;2023-03-25T09:20:21;91582.75;;;18.60;37.00
34506;BME280;20748;42.632;23.198;2023-03-25T09:22:54;91585.16;;;18.72;36.38
34506;BME280;20748;42.632;23.198;2023-03-25T09:25:26;91578.88;;;18.84;36.48
34506;BME280;20748;42.632;23.198;2023-03-25T09:27:59;91585.69;;;18.85;36.38
34506;BME280;20748;42.632;23.198;2023-03-25T09:30:31;91581.63;;;18.91;36.51
34506;BME280;20748;42.632;23.198;2023-03-25T09:33:04;91579.50;;;19.04;37.01
34506;BME280;20748;42.632;23.198;2023-03-25T09:35:38;91580.84;;;18.91;37.03
34506;BME280;20748;42.632;23.198;2023-03-25T09:38:11;91581.25;;;19.27;36.25
34506;BME280;20748;42.632;23.198;2023-03-25T09:40:44;91573.81;;;19.37;36.64
34506;BME280;20748;42.632;23.198;2023-03-25T09:43:25;91581.91;;;19.58;36.33
34506;BME280;20748;42.632;23.198;2023-03-25T09:46:00;91575.09;;;19.99;35.94
34506;BME280;20748;42.632;23.198;2023-03-25T09:48:36;91574.56;;;20.31;35.32
34506;BME280;20748;42.632;23.198;2023-03-25T09:51:13;91568.69;;;20.67;34.83
34506;BME280;20748;42.632;23.198;2023-03-25T09:53:50;91568.94;;;20.40;34.02
34506;BME280;20748;42.632;23.198;2023-03-25T09:56:26;91572.81;;;20.61;33.85
34506;BME280;20748;42.632;23.198;2023-03-25T09:59:02;91568.16;;;20.36;38.67
34506;BME280;20748;42.632;23.198;2023-03-25T10:01:42;91565.25;;;20.59;39.09
34506;BME280;20748;42.632;23.198;2023-03-25T10:04:34;91562.63;;;20.63;40.50
34506;BME280;20748;42.632;23.198;2023-03-25T10:07:20;91559.53;;;20.50;40.96
34506;BME280;20748;42.632;23.198;2023-03-25T10:10:04;91555.78;;;20.58;39.85
34506;BME280;20748;42.632;23.198;2023-03-25T10:12:47;91549.19;;;21.01;37.64
34506;BME280;20748;42.632;23.198;2023-03-25T10:15:29;91545.41;;;21.16;35.35
34506;BME280;20748;42.632;23.198;2023-03-25T10:20:58;91535.22;;;21.26;34.94
34506;BME280;20748;42.632;23.198;2023-03-25T10:23:37;91533.72;;;21.39;34.81
34506;BME280;20748;42.632;23.198;2023-03-25T10:26:17;91530.69;;;21.48;33.84
34506;BME280;20748;42.632;23.198;2023-03-25T10:28:55;91526.91;;;21.35;33.06
34506;BME280;20748;42.632;23.198;2023-03-25T10:31:33;91526.53;;;21.40;33.74
34506;BME280;20748;42.632;23.198;2023-03-25T10:34:13;91523.28;;;20.76;33.68
34506;BME280;20748;42.632;23.198;2023-03-25T10:36:51;91522.59;;;20.86;35.25
34506;BME280;20748;42.632;23.198;2023-03-25T10:39:30;91519.97;;;20.97;33.38
34506;BME280;20748;42.632;23.198;2023-03-25T10:42:16;91517.63;;;20.81;32.97
34506;BME280;20748;42.632;23.198;2023-03-25T10:44:51;91523.03;;;20.99;33.22
34506;BME280;20748;42.632;23.198;2023-03-25T10:47:26;91513.91;;;20.93;34.14
34506;BME280;20748;42.632;23.198;2023-03-25T10:50:03;91519.47;;;20.66;34.17
34506;BME280;20748;42.632;23.198;2023-03-25T10:52:35;91514.47;;;20.46;34.39
34506;BME280;20748;42.632;23.198;2023-03-25T10:55:16;91500.53;;;19.93;34.13
34506;BME280;20748;42.632;23.198;2023-03-25T10:57:55;91502.31;;;20.42;34.77
34506;BME280;20748;42.632;23.198;2023-03-25T11:00:28;91499.94;;;20.15;35.91
34506;BME280;20748;42.632;23.198;2023-03-25T11:03:01;91503.09;;;20.46;34.37
34506;BME280;20748;42.632;23.198;2023-03-25T11:05:34;91493.41;;;20.83;33.17
34506;BME280;20748;42.632;23.198;2023-03-25T11:08:08;91487.31;;;20.78;33.83
34506;BME280;20748;42.632;23.198;2023-03-25T11:10:55;91493.13;;;21.13;33.25
34506;BME280;20748;42.632;23.198;2023-03-25T11:13:29;91493.50;;;21.08;32.95
34506;BME280;20748;42.632;23.198;2023-03-25T11:16:03;91488.25;;;21.41;32.95
34506;BME280;20748;42.632;23.198;2023-03-25T11:18:37;91479.88;;;21.39;31.66
34506;BME280;20748;42.632;23.198;2023-03-25T11:21:13;91483.28;;;21.50;31.65
34506;BME280;20748;42.632;23.198;2023-03-25T11:23:46;91482.94;;;21.48;31.96
34506;BME280;20748;42.632;23.198;2023-03-25T11:26:21;91484.06;;;21.65;31.34
34506;BME280;20748;42.632;23.198;2023-03-25T11:29:02;91476.09;;;21.47;31.29
34506;BME280;20748;42.632;23.198;2023-03-25T11:31:37;91464.34;;;21.55;32.56
34506;BME280;20748;42.632;23.198;2023-03-25T11:34:16;91462.44;;;21.41;31.74
34506;BME280;20748;42.632;23.198;2023-03-25T11:36:52;91459.06;;;21.37;31.62
34506;BME280;20748;42.632;23.198;2023-03-25T11:39:31;91456.03;;;21.79;32.26
34506;BME280;20748;42.632;23.198;2023-03-25T11:42:12;91462.44;;;21.27;31.78
34506;BME280;20748;42.632;23.198;2023-03-25T11:44:50;91457.16;;;21.16;31.62
34506;BME280;20748;42.632;23.198;2023-03-25T11:47:25;91459.06;;;21.33;31.78
34506;BME280;20748;42.632;23.198;2023-03-25T11:50:01;91449.94;;;21.24;30.38
34506;BME280;20748;42.632;23.198;2023-03-25T11:52:38;91447.28;;;21.45;30.81
34506;BME280;20748;42.632;23.198;2023-03-25T11:55:15;91440.84;;;21.39;29.60
34506;BME280;20748;42.632;23.198;2023-03-25T11:57:49;91440.47;;;21.33;31.47
34506;BME280;20748;42.632;23.198;2023-03-25T12:00:30;91454.88;;;21.11;31.77
34506;BME280;20748;42.632;23.198;2023-03-25T12:03:14;91443.47;;;20.92;31.69
34506;BME280;20748;42.632;23.198;2023-03-25T12:06:00;91439.16;;;20.51;32.47
34506;BME280;20748;42.632;23.198;2023-03-25T12:08:42;91440.38;;;20.79;33.03
34506;BME280;20748;42.632;23.198;2023-03-25T12:11:17;91431.28;;;20.80;32.91
34506;BME280;20748;42.632;23.198;2023-03-25T12:14:27;91435.03;;;20.68;33.45
34506;BME280;20748;42.632;23.198;2023-03-25T12:17:07;91436.09;;;20.42;33.82
34506;BME280;20748;42.632;23.198;2023-03-25T12:19:43;91428.56;;;20.51;33.87
34506;BME280;20748;42.632;23.198;2023-03-25T12:22:27;91430.09;;;20.59;34.56
34506;BME280;20748;42.632;23.198;2023-03-25T12:25:17;91439.16;;;20.51;33.79
34506;BME280;20748;42.632;23.198;2023-03-25T12:28:05;91439.94;;;20.55;33.63
34506;BME280;20748;42.632;23.198;2023-03-25T12:30:51;91435.81;;;20.61;33.79
34506;BME280;20748;42.632;23.198;2023-03-25T12:33:35;91433.94;;;20.65;34.00
34506;BME280;20748;42.632;23.198;2023-03-25T12:36:20;91436.66;;;20.98;33.53
34506;BME280;20748;42.632;23.198;2023-03-25T12:39:12;91423.38;;;20.87;32.66
34506;BME280;20748;42.632;23.198;2023-03-25T12:41:55;91416.97;;;21.06;33.90
34506;BME280;20748;42.632;23.198;2023-03-25T12:44:44;91421.09;;;20.86;34.03
34506;BME280;20748;42.632;23.198;2023-03-25T12:47:22;91423.00;;;20.96;33.15
34506;BME280;20748;42.632;23.198;2023-03-25T12:50:08;91411.66;;;20.96;33.26
34506;BME280;20748;42.632;23.198;2023-03-25T12:52:53;91418.44;;;20.86;33.58
34506;BME280;20748;42.632;23.198;2023-03-25T12:55:36;91420.31;;;20.82;34.28
34506;BME280;20748;42.632;23.198;2023-03-25T12:58:30;91412.63;;;20.33;34.89
34506;BME280;20748;42.632;23.198;2023-03-25T13:01:10;91414.06;;;20.16;34.96
34506;BME280;20748;42.632;23.198;2023-03-25T13:06:42;91413.56;;;19.95;36.92
34506;BME280;20748;42.632;23.198;2023-03-25T13:09:20;91415.03;;;19.89;36.63
34506;BME280;20748;42.632;23.198;2023-03-25T13:11:59;91413.19;;;19.93;36.99
34506;BME280;20748;42.632;23.198;2023-03-25T13:14:36;91423.69;;;19.82;37.66
34506;BME280;20748;42.632;23.198;2023-03-25T13:17:17;91424.31;;;19.57;38.59
34506;BME280;20748;42.632;23.198;2023-03-25T13:19:58;91417.25;;;19.20;39.21
34506;BME280;20748;42.632;23.198;2023-03-25T13:22:36;91425.53;;;19.18;39.36
34506;BME280;20748;42.632;23.198;2023-03-25T13:25:18;91425.91;;;19.17;41.31
34506;BME280;20748;42.632;23.198;2023-03-25T13:27:54;91426.59;;;19.07;41.43
34506;BME280;20748;42.632;23.198;2023-03-25T13:30:32;91422.00;;;18.62;40.61
34506;BME280;20748;42.632;23.198;2023-03-25T13:33:12;91441.97;;;18.59;40.51
34506;BME280;20748;42.632;23.198;2023-03-25T13:35:50;91440.16;;;18.67;42.33
34506;BME280;20748;42.632;23.198;2023-03-25T13:38:28;91446.28;;;18.75;41.24
34506;BME280;20748;42.632;23.198;2023-03-25T13:41:08;91449.28;;;18.73;42.08
34506;BME280;20748;42.632;23.198;2023-03-25T13:43:49;91469.41;;;18.17;43.00
34506;BME280;20748;42.632;23.198;2023-03-25T13:46:26;91475.69;;;17.08;46.29
34506;BME280;20748;42.632;23.198;2023-03-25T13:49:05;91498.22;;;16.42;51.05
34506;BME280;20748;42.632;23.198;2023-03-25T13:51:38;91496.00;;;16.44;57.86
34506;BME280;20748;42.632;23.198;2023-03-25T13:54:13;91492.25;;;16.26;57.84